This is the latest recevied weather packets stored in our database for station/object IU4KCH-20. If no packets are shown the sender has not sent any weather packets the latest 10 day(s).
| Time | Temp. | Humidity | Pressure | Rain* | Wind** | Luminosity | Snow |
|---|---|---|---|---|---|---|---|
| 1777546531 | 21.67° C | 39% | 1021.2 hPa | - | - | - | - |
| 1777544729 | 20.56° C | 46% | 1021.3 hPa | - | - | - | - |
| 1777543828 | 20.56° C | 47% | 1021.3 hPa | - | - | - | - |
| 1777542927 | 20° C | 48% | 1021.3 hPa | - | - | - | - |
| 1777542027 | 19.44° C | 49% | 1021.3 hPa | - | - | - | - |
| 1777541126 | 19.44° C | 49% | 1021.4 hPa | - | - | - | - |
| 1777540225 | 18.89° C | 50% | 1021.5 hPa | - | - | - | - |
| 1777539324 | 18.33° C | 51% | 1021.5 hPa | - | - | - | - |
| 1777538423 | 18.33° C | 52% | 1021.5 hPa | - | - | - | - |
| 1777537522 | 17.78° C | 52% | 1021.4 hPa | - | - | - | - |
| 1777536621 | 17.22° C | 53% | 1021.3 hPa | - | - | - | - |
| 1777535721 | 17.78° C | 54% | 1021 hPa | - | - | - | - |
| 1777534820 | 17.22° C | 56% | 1021.1 hPa | - | - | - | - |
| 1777533919 | 16.11° C | 56% | 1021.1 hPa | - | - | - | - |
| 1777533018 | 16.11° C | 59% | 1021 hPa | - | - | - | - |
| 1777532117 | 15.56° C | 60% | 1020.9 hPa | - | - | - | - |
| 1777531217 | 15° C | 64% | 1020.9 hPa | - | - | - | - |
| 1777530316 | 15.56° C | 62% | 1020.8 hPa | - | - | - | - |
| 1777529415 | 15° C | 63% | 1020.6 hPa | - | - | - | - |
| 1777528514 | 15° C | 65% | 1020.5 hPa | - | - | - | - |
| 1777527613 | 15° C | 66% | 1020.3 hPa | - | - | - | - |
| 1777526712 | 14.44° C | 68% | 1020.2 hPa | - | - | - | - |
| 1777525812 | 14.44° C | 69% | 1020 hPa | - | - | - | - |
| 1777524911 | 14.44° C | 68% | 1019.9 hPa | - | - | - | - |
| 1777524010 | 14.44° C | 70% | 1019.8 hPa | - | - | - | - |
* Rain since midnight (hover to see other rain measurements)
** Current wind speed in m/s (hover to see current wind gust speed)